Thursday, November 27, 2014
21:58 UTC
  |  Log In   |  Register Free
Airport Search:

Clayton Municipal Airport
(11A)

Clayton Municipal Airport Diagram
No Airport Diagram Available

FAA data valid effective November 13, 2014 - January 08, 2015 (unless otherwise noted).

 
 
 
 
 
 
 
 
 
 
 
 
 
 

Current Aviation Weather for Clayton Municipal Airport (11A)

METAR data is unavailable for 11A. The nearest METAR location is at KEUF (18.6 nm NE from 11A).

The most recent METAR observation for KEUF was updated at: 2113
METAR Summary (Translated METAR)
KEUF
272058Z AUTO VRB05KT 10SM CLR 13/M01 A3030 RMK AO2 SLP259 T01281011 53001
(18.6 nm NE from 11A)
KTOI
272053Z AUTO 35014G19KT 10SM CLR 12/M02 A3033 RMK AO2 SLP271 T01171017 55000
(26.9 nm SW from 11A)
TAF Summary (Translated TAF)
KTOI
(45.4 nm SW from KEUF)
271731Z 2718/2818 32012G22KT P6SM FEW002 SCT035 FM280000 35006KT P6SM SKC
  Airport Weather Conditions for 11A

Current weather conditions are
not available for 11A


The nearest NOAA weather station
is at EUF, (18.6 nm NE from 11A)
  
 Current Weather at EUF
55° F
Fair
Variable winds at 5.8 mph
EUF NOAA Radar

Pressure: 30.30 in
Humidity: 38%
Wind: Variable at 5.8 MPH (5 KT)
Dew Point: 30.0°F
Visibility: 10.00 mi


Airport Weather Forecast for 11A

Translated METAR and TAF for KEUF
Translated METAR for KEUF (2153 UTC 27 November 2014)
found at http://aviationweather.gov/adds/metars/
 
METAR text: KEUF 272058Z AUTO VRB05KT 10SM CLR 13/M01 A3030 RMK AO2 SLP259 T01281011 53001
Conditions at: KEUF (EUFAULA , AL, US) observed 2058 UTC 27 November 2014
Temperature: 12.8°C (55°F)
Dewpoint: -1.1°C (30°F) [RH = 38%]
Pressure (altimeter): 30.30 inches Hg (1026.2 mb)
[Sea-level pressure: 1025.9 mb]
Winds: variable direction winds at 6 MPH (5 knots; 2.6 m/s)
Visibility: 10 or more miles (16+ km)
Ceiling: at least 12,000 feet AGL
Clouds: sky clear below 12,000 feet AGL
Weather: automated observation with no human augmentation;
there may or may not be significant weather present at this time
Translated TAF for KEUF

There is no translated TAF available for this airport

Find All Airport Services Find A Hotel Find A Rental Car Find A Golf Course Find A Restaurant $100 Hamburger



FBO's on the Field
FBO Company Facility Photos Services Transportation Aviation Fuel Prices: Prices include tax
Catering Weather Repair Courtesy Rental Type 100LL JetA JetA+ MOGAS 8087
 
Add another FBO Facility Photos Catering Weather Repair Courtesy Rental Type 100LL JetA JetA+ MOGAS 8087
Services Transportation Aviation Fuel Prices: Prices include tax
There are no FBO's currently reporting fuel at 11A. List your FBO now


model-print
model-print
model-print
model-print